sensor_id;sensor_type;location;lat;lon;timestamp;P1;durP1;ratioP1;P2;durP2;ratioP2
38312;SDS011;24114;52.260;6.714;2023-07-22T00:01:50;5.40;;;3.45;;
38312;SDS011;24114;52.260;6.714;2023-07-22T00:04:18;4.97;;;3.50;;
38312;SDS011;24114;52.260;6.714;2023-07-22T00:06:48;4.30;;;3.40;;
38312;SDS011;24114;52.260;6.714;2023-07-22T00:09:16;5.22;;;3.60;;
38312;SDS011;24114;52.260;6.714;2023-07-22T00:11:43;6.35;;;4.05;;
38312;SDS011;24114;52.260;6.714;2023-07-22T00:14:11;5.70;;;4.10;;
38312;SDS011;24114;52.260;6.714;2023-07-22T00:16:40;5.60;;;3.47;;
38312;SDS011;24114;52.260;6.714;2023-07-22T00:19:08;4.82;;;3.63;;
38312;SDS011;24114;52.260;6.714;2023-07-22T00:21:36;5.97;;;4.18;;
38312;SDS011;24114;52.260;6.714;2023-07-22T00:24:05;5.60;;;4.05;;
38312;SDS011;24114;52.260;6.714;2023-07-22T00:26:33;7.07;;;4.00;;
38312;SDS011;24114;52.260;6.714;2023-07-22T00:29:00;5.63;;;3.67;;
38312;SDS011;24114;52.260;6.714;2023-07-22T00:31:28;5.53;;;3.75;;
38312;SDS011;24114;52.260;6.714;2023-07-22T00:33:56;5.20;;;4.25;;
38312;SDS011;24114;52.260;6.714;2023-07-22T00:36:24;5.97;;;4.10;;
38312;SDS011;24114;52.260;6.714;2023-07-22T00:38:53;7.15;;;4.05;;
38312;SDS011;24114;52.260;6.714;2023-07-22T00:41:22;6.60;;;4.53;;
38312;SDS011;24114;52.260;6.714;2023-07-22T00:43:50;5.90;;;4.45;;
38312;SDS011;24114;52.260;6.714;2023-07-22T00:46:18;6.57;;;4.22;;
38312;SDS011;24114;52.260;6.714;2023-07-22T00:48:46;7.03;;;4.70;;
38312;SDS011;24114;52.260;6.714;2023-07-22T00:51:14;5.32;;;4.10;;
38312;SDS011;24114;52.260;6.714;2023-07-22T00:53:42;5.47;;;4.32;;
38312;SDS011;24114;52.260;6.714;2023-07-22T00:56:10;5.10;;;4.40;;
38312;SDS011;24114;52.260;6.714;2023-07-22T00:58:39;5.60;;;4.60;;
38312;SDS011;24114;52.260;6.714;2023-07-22T01:01:07;5.00;;;4.10;;
38312;SDS011;24114;52.260;6.714;2023-07-22T01:03:35;6.28;;;4.60;;
38312;SDS011;24114;52.260;6.714;2023-07-22T01:06:03;6.68;;;4.45;;
38312;SDS011;24114;52.260;6.714;2023-07-22T01:08:31;6.45;;;4.70;;
38312;SDS011;24114;52.260;6.714;2023-07-22T01:10:59;5.43;;;4.37;;
38312;SDS011;24114;52.260;6.714;2023-07-22T01:13:26;6.78;;;4.68;;
38312;SDS011;24114;52.260;6.714;2023-07-22T01:15:56;7.50;;;5.13;;
38312;SDS011;24114;52.260;6.714;2023-07-22T01:18:24;6.88;;;5.60;;
38312;SDS011;24114;52.260;6.714;2023-07-22T01:20:51;8.10;;;6.18;;
38312;SDS011;24114;52.260;6.714;2023-07-22T01:23:21;7.30;;;5.35;;
38312;SDS011;24114;52.260;6.714;2023-07-22T01:25:49;8.05;;;5.68;;
38312;SDS011;24114;52.260;6.714;2023-07-22T01:28:17;6.90;;;5.37;;
38312;SDS011;24114;52.260;6.714;2023-07-22T01:30:45;7.07;;;5.68;;
38312;SDS011;24114;52.260;6.714;2023-07-22T01:33:13;8.15;;;6.00;;
38312;SDS011;24114;52.260;6.714;2023-07-22T01:35:41;7.90;;;5.85;;
38312;SDS011;24114;52.260;6.714;2023-07-22T01:38:09;7.53;;;5.35;;
38312;SDS011;24114;52.260;6.714;2023-07-22T01:40:38;7.00;;;5.40;;
38312;SDS011;24114;52.260;6.714;2023-07-22T01:43:06;6.88;;;5.43;;
38312;SDS011;24114;52.260;6.714;2023-07-22T01:45:33;7.93;;;5.60;;
38312;SDS011;24114;52.260;6.714;2023-07-22T01:48:01;7.13;;;5.53;;
38312;SDS011;24114;52.260;6.714;2023-07-22T01:50:29;6.72;;;5.45;;
38312;SDS011;24114;52.260;6.714;2023-07-22T01:52:57;6.43;;;5.07;;
38312;SDS011;24114;52.260;6.714;2023-07-22T01:55:25;8.00;;;5.18;;
38312;SDS011;24114;52.260;6.714;2023-07-22T01:57:54;5.88;;;5.10;;
38312;SDS011;24114;52.260;6.714;2023-07-22T02:00:22;7.90;;;5.38;;
38312;SDS011;24114;52.260;6.714;2023-07-22T02:02:50;6.65;;;5.15;;
38312;SDS011;24114;52.260;6.714;2023-07-22T02:05:18;7.03;;;4.90;;
38312;SDS011;24114;52.260;6.714;2023-07-22T02:07:47;6.68;;;5.50;;
38312;SDS011;24114;52.260;6.714;2023-07-22T02:10:15;6.00;;;4.93;;
38312;SDS011;24114;52.260;6.714;2023-07-22T02:12:42;7.05;;;5.53;;
38312;SDS011;24114;52.260;6.714;2023-07-22T02:15:12;8.02;;;5.25;;
38312;SDS011;24114;52.260;6.714;2023-07-22T02:17:40;6.13;;;5.53;;
38312;SDS011;24114;52.260;6.714;2023-07-22T02:20:08;8.05;;;5.60;;
38312;SDS011;24114;52.260;6.714;2023-07-22T02:22:36;6.87;;;5.73;;
38312;SDS011;24114;52.260;6.714;2023-07-22T02:25:04;8.80;;;5.85;;
38312;SDS011;24114;52.260;6.714;2023-07-22T02:27:33;8.60;;;6.13;;
38312;SDS011;24114;52.260;6.714;2023-07-22T02:30:01;7.07;;;5.68;;
38312;SDS011;24114;52.260;6.714;2023-07-22T02:32:32;7.40;;;5.43;;
38312;SDS011;24114;52.260;6.714;2023-07-22T02:35:00;7.53;;;6.00;;
38312;SDS011;24114;52.260;6.714;2023-07-22T02:37:27;10.73;;;5.47;;
38312;SDS011;24114;52.260;6.714;2023-07-22T02:39:55;7.85;;;5.70;;
38312;SDS011;24114;52.260;6.714;2023-07-22T02:42:23;7.35;;;5.50;;
38312;SDS011;24114;52.260;6.714;2023-07-22T02:44:51;7.35;;;5.90;;
38312;SDS011;24114;52.260;6.714;2023-07-22T02:47:19;7.55;;;5.70;;
38312;SDS011;24114;52.260;6.714;2023-07-22T02:49:48;8.45;;;6.28;;
38312;SDS011;24114;52.260;6.714;2023-07-22T02:52:16;9.13;;;6.18;;
38312;SDS011;24114;52.260;6.714;2023-07-22T02:54:54;7.80;;;5.90;;
38312;SDS011;24114;52.260;6.714;2023-07-22T02:57:31;8.27;;;6.45;;
38312;SDS011;24114;52.260;6.714;2023-07-22T02:59:59;9.77;;;6.30;;
38312;SDS011;24114;52.260;6.714;2023-07-22T03:02:33;8.80;;;6.63;;
38312;SDS011;24114;52.260;6.714;2023-07-22T03:05:02;9.50;;;6.80;;
38312;SDS011;24114;52.260;6.714;2023-07-22T03:07:34;8.27;;;6.57;;
38312;SDS011;24114;52.260;6.714;2023-07-22T03:10:02;9.05;;;6.68;;
38312;SDS011;24114;52.260;6.714;2023-07-22T03:12:31;8.90;;;6.75;;
38312;SDS011;24114;52.260;6.714;2023-07-22T03:14:59;9.83;;;7.23;;
38312;SDS011;24114;52.260;6.714;2023-07-22T03:17:27;9.75;;;7.28;;
38312;SDS011;24114;52.260;6.714;2023-07-22T03:19:56;8.40;;;6.70;;
38312;SDS011;24114;52.260;6.714;2023-07-22T03:22:25;9.38;;;7.10;;
38312;SDS011;24114;52.260;6.714;2023-07-22T03:24:53;9.98;;;7.07;;
38312;SDS011;24114;52.260;6.714;2023-07-22T03:27:21;9.27;;;7.00;;
38312;SDS011;24114;52.260;6.714;2023-07-22T03:29:48;8.82;;;6.65;;
38312;SDS011;24114;52.260;6.714;2023-07-22T03:32:16;9.27;;;6.85;;
38312;SDS011;24114;52.260;6.714;2023-07-22T03:34:44;11.02;;;7.53;;
38312;SDS011;24114;52.260;6.714;2023-07-22T03:37:12;11.05;;;7.45;;
38312;SDS011;24114;52.260;6.714;2023-07-22T03:39:42;10.47;;;7.63;;
38312;SDS011;24114;52.260;6.714;2023-07-22T03:42:10;10.23;;;7.20;;
38312;SDS011;24114;52.260;6.714;2023-07-22T03:44:38;10.80;;;7.95;;
38312;SDS011;24114;52.260;6.714;2023-07-22T03:47:07;11.50;;;8.18;;
38312;SDS011;24114;52.260;6.714;2023-07-22T03:49:34;11.38;;;7.65;;
38312;SDS011;24114;52.260;6.714;2023-07-22T03:52:02;12.15;;;7.88;;
38312;SDS011;24114;52.260;6.714;2023-07-22T03:54:31;11.38;;;7.88;;
38312;SDS011;24114;52.260;6.714;2023-07-22T03:57:00;11.00;;;8.10;;
38312;SDS011;24114;52.260;6.714;2023-07-22T03:59:28;11.00;;;7.60;;
38312;SDS011;24114;52.260;6.714;2023-07-22T04:01:56;10.43;;;7.70;;
38312;SDS011;24114;52.260;6.714;2023-07-22T04:04:23;10.07;;;7.63;;
38312;SDS011;24114;52.260;6.714;2023-07-22T04:06:51;11.48;;;8.23;;
38312;SDS011;24114;52.260;6.714;2023-07-22T04:09:19;10.13;;;7.90;;
38312;SDS011;24114;52.260;6.714;2023-07-22T04:11:47;11.53;;;8.57;;
38312;SDS011;24114;52.260;6.714;2023-07-22T04:14:16;11.18;;;8.52;;
38312;SDS011;24114;52.260;6.714;2023-07-22T04:16:44;11.85;;;8.70;;
38312;SDS011;24114;52.260;6.714;2023-07-22T04:19:12;10.90;;;8.80;;
38312;SDS011;24114;52.260;6.714;2023-07-22T04:21:39;12.07;;;8.00;;
38312;SDS011;24114;52.260;6.714;2023-07-22T04:24:07;10.93;;;8.43;;
38312;SDS011;24114;52.260;6.714;2023-07-22T04:26:37;12.45;;;8.32;;
38312;SDS011;24114;52.260;6.714;2023-07-22T04:29:05;12.52;;;9.02;;
38312;SDS011;24114;52.260;6.714;2023-07-22T04:31:35;14.27;;;9.38;;
38312;SDS011;24114;52.260;6.714;2023-07-22T04:34:03;13.00;;;9.52;;
38312;SDS011;24114;52.260;6.714;2023-07-22T04:36:31;13.80;;;9.20;;
38312;SDS011;24114;52.260;6.714;2023-07-22T04:39:00;13.77;;;9.68;;
38312;SDS011;24114;52.260;6.714;2023-07-22T04:41:27;14.13;;;10.77;;
38312;SDS011;24114;52.260;6.714;2023-07-22T04:43:57;14.55;;;10.02;;
38312;SDS011;24114;52.260;6.714;2023-07-22T04:46:25;15.07;;;10.48;;
38312;SDS011;24114;52.260;6.714;2023-07-22T04:48:55;16.88;;;10.98;;
38312;SDS011;24114;52.260;6.714;2023-07-22T04:51:24;15.73;;;10.60;;
38312;SDS011;24114;52.260;6.714;2023-07-22T04:53:52;14.93;;;10.07;;
38312;SDS011;24114;52.260;6.714;2023-07-22T04:56:19;17.75;;;11.30;;
38312;SDS011;24114;52.260;6.714;2023-07-22T04:58:47;16.88;;;11.90;;
38312;SDS011;24114;52.260;6.714;2023-07-22T05:01:16;15.05;;;11.63;;
38312;SDS011;24114;52.260;6.714;2023-07-22T05:03:44;16.02;;;11.25;;
38312;SDS011;24114;52.260;6.714;2023-07-22T05:06:13;15.98;;;11.52;;
38312;SDS011;24114;52.260;6.714;2023-07-22T05:08:41;15.25;;;11.40;;
38312;SDS011;24114;52.260;6.714;2023-07-22T05:11:09;17.13;;;11.20;;
38312;SDS011;24114;52.260;6.714;2023-07-22T05:13:37;17.00;;;11.70;;
38312;SDS011;24114;52.260;6.714;2023-07-22T05:16:05;15.13;;;11.65;;
38312;SDS011;24114;52.260;6.714;2023-07-22T05:18:32;16.40;;;11.93;;
38312;SDS011;24114;52.260;6.714;2023-07-22T05:21:00;17.25;;;11.93;;
38312;SDS011;24114;52.260;6.714;2023-07-22T05:23:29;14.80;;;10.90;;
38312;SDS011;24114;52.260;6.714;2023-07-22T05:25:57;15.15;;;11.80;;
38312;SDS011;24114;52.260;6.714;2023-07-22T05:28:25;16.42;;;10.82;;
38312;SDS011;24114;52.260;6.714;2023-07-22T05:30:53;15.07;;;10.80;;
38312;SDS011;24114;52.260;6.714;2023-07-22T05:33:23;15.07;;;10.98;;
38312;SDS011;24114;52.260;6.714;2023-07-22T05:35:50;14.57;;;11.43;;
38312;SDS011;24114;52.260;6.714;2023-07-22T05:38:18;14.35;;;11.23;;
38312;SDS011;24114;52.260;6.714;2023-07-22T05:40:47;14.93;;;11.20;;
38312;SDS011;24114;52.260;6.714;2023-07-22T05:43:15;16.30;;;11.60;;
38312;SDS011;24114;52.260;6.714;2023-07-22T05:45:43;18.05;;;12.25;;
38312;SDS011;24114;52.260;6.714;2023-07-22T05:48:11;16.52;;;12.07;;
38312;SDS011;24114;52.260;6.714;2023-07-22T05:50:39;16.83;;;12.00;;
38312;SDS011;24114;52.260;6.714;2023-07-22T05:53:07;17.63;;;12.77;;
38312;SDS011;24114;52.260;6.714;2023-07-22T05:55:35;16.83;;;12.48;;
38312;SDS011;24114;52.260;6.714;2023-07-22T05:58:04;17.73;;;12.73;;
38312;SDS011;24114;52.260;6.714;2023-07-22T06:00:32;16.25;;;12.23;;
38312;SDS011;24114;52.260;6.714;2023-07-22T06:03:00;18.20;;;13.07;;
38312;SDS011;24114;52.260;6.714;2023-07-22T06:05:28;18.47;;;13.30;;
38312;SDS011;24114;52.260;6.714;2023-07-22T06:07:56;18.67;;;12.95;;
38312;SDS011;24114;52.260;6.714;2023-07-22T06:10:25;18.52;;;13.32;;
38312;SDS011;24114;52.260;6.714;2023-07-22T06:12:53;19.13;;;13.00;;
38312;SDS011;24114;52.260;6.714;2023-07-22T06:15:22;18.80;;;12.97;;
38312;SDS011;24114;52.260;6.714;2023-07-22T06:17:50;17.77;;;12.87;;
38312;SDS011;24114;52.260;6.714;2023-07-22T06:20:18;17.58;;;12.90;;
38312;SDS011;24114;52.260;6.714;2023-07-22T06:22:45;18.08;;;12.68;;
38312;SDS011;24114;52.260;6.714;2023-07-22T06:25:13;20.27;;;13.95;;
38312;SDS011;24114;52.260;6.714;2023-07-22T06:27:41;19.02;;;13.55;;
38312;SDS011;24114;52.260;6.714;2023-07-22T06:30:09;19.08;;;13.43;;
38312;SDS011;24114;52.260;6.714;2023-07-22T06:32:39;20.05;;;13.63;;
38312;SDS011;24114;52.260;6.714;2023-07-22T06:35:08;18.30;;;12.83;;
38312;SDS011;24114;52.260;6.714;2023-07-22T06:37:35;20.60;;;13.40;;
38312;SDS011;24114;52.260;6.714;2023-07-22T06:40:04;21.02;;;13.55;;
38312;SDS011;24114;52.260;6.714;2023-07-22T06:42:33;19.85;;;13.70;;
38312;SDS011;24114;52.260;6.714;2023-07-22T06:45:01;19.30;;;13.63;;
38312;SDS011;24114;52.260;6.714;2023-07-22T06:47:29;20.80;;;13.75;;
38312;SDS011;24114;52.260;6.714;2023-07-22T06:49:58;17.80;;;12.60;;
38312;SDS011;24114;52.260;6.714;2023-07-22T06:52:26;21.00;;;13.77;;
38312;SDS011;24114;52.260;6.714;2023-07-22T06:54:54;21.20;;;13.98;;
38312;SDS011;24114;52.260;6.714;2023-07-22T06:57:22;18.33;;;13.00;;
38312;SDS011;24114;52.260;6.714;2023-07-22T06:59:53;19.38;;;12.77;;
38312;SDS011;24114;52.260;6.714;2023-07-22T07:02:21;21.13;;;14.05;;
38312;SDS011;24114;52.260;6.714;2023-07-22T07:04:49;20.35;;;13.75;;
38312;SDS011;24114;52.260;6.714;2023-07-22T07:07:18;20.70;;;14.13;;
38312;SDS011;24114;52.260;6.714;2023-07-22T07:09:46;18.88;;;13.75;;
38312;SDS011;24114;52.260;6.714;2023-07-22T07:12:14;19.17;;;13.40;;
38312;SDS011;24114;52.260;6.714;2023-07-22T07:14:42;18.92;;;12.90;;
38312;SDS011;24114;52.260;6.714;2023-07-22T07:17:09;18.25;;;12.65;;
38312;SDS011;24114;52.260;6.714;2023-07-22T07:19:37;19.52;;;13.02;;
38312;SDS011;24114;52.260;6.714;2023-07-22T07:22:05;19.90;;;13.60;;
38312;SDS011;24114;52.260;6.714;2023-07-22T07:24:34;20.25;;;13.52;;
38312;SDS011;24114;52.260;6.714;2023-07-22T07:27:03;19.33;;;13.32;;
38312;SDS011;24114;52.260;6.714;2023-07-22T07:29:31;18.23;;;12.38;;
38312;SDS011;24114;52.260;6.714;2023-07-22T07:32:19;17.27;;;12.52;;
38312;SDS011;24114;52.260;6.714;2023-07-22T07:34:47;19.42;;;12.93;;
38312;SDS011;24114;52.260;6.714;2023-07-22T07:37:14;19.67;;;12.53;;
38312;SDS011;24114;52.260;6.714;2023-07-22T07:39:44;17.23;;;12.05;;
38312;SDS011;24114;52.260;6.714;2023-07-22T07:42:12;18.60;;;12.25;;
38312;SDS011;24114;52.260;6.714;2023-07-22T07:44:40;15.18;;;11.65;;
38312;SDS011;24114;52.260;6.714;2023-07-22T07:47:07;17.25;;;11.75;;
38312;SDS011;24114;52.260;6.714;2023-07-22T07:49:35;16.30;;;11.00;;
38312;SDS011;24114;52.260;6.714;2023-07-22T07:52:04;16.90;;;11.45;;
38312;SDS011;24114;52.260;6.714;2023-07-22T07:54:32;19.02;;;11.85;;
38312;SDS011;24114;52.260;6.714;2023-07-22T07:57:01;15.18;;;11.30;;
38312;SDS011;24114;52.260;6.714;2023-07-22T07:59:29;14.90;;;10.60;;
38312;SDS011;24114;52.260;6.714;2023-07-22T08:01:57;15.63;;;11.52;;
38312;SDS011;24114;52.260;6.714;2023-07-22T08:04:25;16.88;;;11.27;;
38312;SDS011;24114;52.260;6.714;2023-07-22T08:06:53;14.13;;;10.15;;
38312;SDS011;24114;52.260;6.714;2023-07-22T08:09:21;14.15;;;9.98;;
38312;SDS011;24114;52.260;6.714;2023-07-22T08:11:49;11.30;;;8.85;;
38312;SDS011;24114;52.260;6.714;2023-07-22T08:14:18;13.95;;;9.82;;
38312;SDS011;24114;52.260;6.714;2023-07-22T08:16:46;12.65;;;9.15;;
38312;SDS011;24114;52.260;6.714;2023-07-22T08:19:14;15.60;;;10.13;;
38312;SDS011;24114;52.260;6.714;2023-07-22T08:21:42;18.88;;;9.63;;
38312;SDS011;24114;52.260;6.714;2023-07-22T08:24:10;14.83;;;9.63;;
38312;SDS011;24114;52.260;6.714;2023-07-22T08:26:38;11.30;;;8.55;;
38312;SDS011;24114;52.260;6.714;2023-07-22T08:29:05;13.10;;;8.00;;
38312;SDS011;24114;52.260;6.714;2023-07-22T08:31:35;10.93;;;8.38;;
38312;SDS011;24114;52.260;6.714;2023-07-22T08:34:03;10.32;;;7.22;;
38312;SDS011;24114;52.260;6.714;2023-07-22T08:36:31;11.25;;;7.88;;
38312;SDS011;24114;52.260;6.714;2023-07-22T08:38:59;9.05;;;6.75;;
38312;SDS011;24114;52.260;6.714;2023-07-22T08:41:27;10.27;;;8.00;;
38312;SDS011;24114;52.260;6.714;2023-07-22T08:43:55;8.15;;;6.32;;
38312;SDS011;24114;52.260;6.714;2023-07-22T08:46:24;9.40;;;6.30;;
38312;SDS011;24114;52.260;6.714;2023-07-22T08:48:57;7.88;;;6.40;;
38312;SDS011;24114;52.260;6.714;2023-07-22T08:51:26;9.13;;;7.07;;
38312;SDS011;24114;52.260;6.714;2023-07-22T08:53:55;9.10;;;6.68;;
38312;SDS011;24114;52.260;6.714;2023-07-22T08:56:36;8.10;;;6.22;;
38312;SDS011;24114;52.260;6.714;2023-07-22T08:59:05;10.18;;;6.68;;
38312;SDS011;24114;52.260;6.714;2023-07-22T09:01:33;9.70;;;7.00;;
38312;SDS011;24114;52.260;6.714;2023-07-22T09:04:04;9.40;;;6.10;;
38312;SDS011;24114;52.260;6.714;2023-07-22T09:06:32;5.63;;;4.80;;
38312;SDS011;24114;52.260;6.714;2023-07-22T09:09:01;6.32;;;5.13;;
38312;SDS011;24114;52.260;6.714;2023-07-22T09:11:31;7.68;;;5.43;;
38312;SDS011;24114;52.260;6.714;2023-07-22T09:13:59;10.82;;;5.45;;
38312;SDS011;24114;52.260;6.714;2023-07-22T09:16:27;7.60;;;5.78;;
38312;SDS011;24114;52.260;6.714;2023-07-22T09:18:58;6.95;;;5.80;;
38312;SDS011;24114;52.260;6.714;2023-07-22T09:21:28;7.53;;;5.82;;
38312;SDS011;24114;52.260;6.714;2023-07-22T09:23:55;8.73;;;5.43;;
38312;SDS011;24114;52.260;6.714;2023-07-22T09:26:23;7.38;;;5.53;;
38312;SDS011;24114;52.260;6.714;2023-07-22T09:28:52;8.35;;;6.28;;
38312;SDS011;24114;52.260;6.714;2023-07-22T09:31:20;7.03;;;5.50;;
38312;SDS011;24114;52.260;6.714;2023-07-22T09:33:49;7.32;;;5.05;;
38312;SDS011;24114;52.260;6.714;2023-07-22T09:36:17;7.13;;;4.80;;
38312;SDS011;24114;52.260;6.714;2023-07-22T09:38:58;7.88;;;5.45;;
38312;SDS011;24114;52.260;6.714;2023-07-22T09:41:29;7.53;;;4.85;;
38312;SDS011;24114;52.260;6.714;2023-07-22T09:43:57;8.02;;;5.03;;
38312;SDS011;24114;52.260;6.714;2023-07-22T09:46:30;6.28;;;4.35;;
38312;SDS011;24114;52.260;6.714;2023-07-22T09:49:02;5.63;;;4.57;;
38312;SDS011;24114;52.260;6.714;2023-07-22T09:51:32;6.28;;;4.10;;
38312;SDS011;24114;52.260;6.714;2023-07-22T09:54:09;6.50;;;4.13;;
38312;SDS011;24114;52.260;6.714;2023-07-22T09:56:44;7.22;;;4.72;;
38312;SDS011;24114;52.260;6.714;2023-07-22T09:59:12;5.63;;;4.35;;
38312;SDS011;24114;52.260;6.714;2023-07-22T10:01:40;7.00;;;4.90;;
38312;SDS011;24114;52.260;6.714;2023-07-22T10:04:09;6.50;;;4.65;;
38312;SDS011;24114;52.260;6.714;2023-07-22T10:06:37;6.93;;;4.50;;
38312;SDS011;24114;52.260;6.714;2023-07-22T10:09:05;6.15;;;4.47;;
38312;SDS011;24114;52.260;6.714;2023-07-22T10:11:38;7.47;;;4.20;;
38312;SDS011;24114;52.260;6.714;2023-07-22T10:14:07;6.38;;;4.35;;
38312;SDS011;24114;52.260;6.714;2023-07-22T10:16:35;5.38;;;3.95;;
38312;SDS011;24114;52.260;6.714;2023-07-22T10:19:07;8.43;;;5.00;;
38312;SDS011;24114;52.260;6.714;2023-07-22T10:21:36;8.13;;;4.95;;
38312;SDS011;24114;52.260;6.714;2023-07-22T10:24:04;7.22;;;4.82;;
38312;SDS011;24114;52.260;6.714;2023-07-22T10:26:33;7.07;;;4.80;;
38312;SDS011;24114;52.260;6.714;2023-07-22T10:29:06;6.45;;;4.63;;
38312;SDS011;24114;52.260;6.714;2023-07-22T10:31:34;7.07;;;4.63;;
38312;SDS011;24114;52.260;6.714;2023-07-22T10:34:03;9.73;;;5.68;;
38312;SDS011;24114;52.260;6.714;2023-07-22T10:36:30;6.87;;;5.17;;
38312;SDS011;24114;52.260;6.714;2023-07-22T10:38:59;7.40;;;4.63;;
38312;SDS011;24114;52.260;6.714;2023-07-22T10:41:30;5.60;;;4.32;;
38312;SDS011;24114;52.260;6.714;2023-07-22T10:43:59;5.93;;;4.10;;
38312;SDS011;24114;52.260;6.714;2023-07-22T10:46:32;5.82;;;4.47;;
38312;SDS011;24114;52.260;6.714;2023-07-22T10:49:07;5.65;;;3.95;;
38312;SDS011;24114;52.260;6.714;2023-07-22T10:51:37;6.07;;;3.88;;
38312;SDS011;24114;52.260;6.714;2023-07-22T10:54:10;5.22;;;3.65;;
38312;SDS011;24114;52.260;6.714;2023-07-22T10:56:40;5.87;;;3.50;;
38312;SDS011;24114;52.260;6.714;2023-07-22T10:59:09;4.55;;;3.08;;
38312;SDS011;24114;52.260;6.714;2023-07-22T11:01:39;3.03;;;2.50;;
38312;SDS011;24114;52.260;6.714;2023-07-22T11:04:11;4.47;;;2.73;;
38312;SDS011;24114;52.260;6.714;2023-07-22T11:06:40;4.30;;;3.47;;
38312;SDS011;24114;52.260;6.714;2023-07-22T11:12:13;4.55;;;3.45;;
38312;SDS011;24114;52.260;6.714;2023-07-22T11:14:46;5.07;;;3.33;;
38312;SDS011;24114;52.260;6.714;2023-07-22T11:17:17;5.90;;;4.05;;
38312;SDS011;24114;52.260;6.714;2023-07-22T11:19:45;5.40;;;3.67;;
38312;SDS011;24114;52.260;6.714;2023-07-22T11:22:13;5.50;;;3.45;;
38312;SDS011;24114;52.260;6.714;2023-07-22T11:24:41;4.93;;;3.55;;
38312;SDS011;24114;52.260;6.714;2023-07-22T11:27:09;5.70;;;3.08;;
38312;SDS011;24114;52.260;6.714;2023-07-22T11:29:36;5.20;;;3.53;;
38312;SDS011;24114;52.260;6.714;2023-07-22T11:32:05;4.75;;;3.47;;
38312;SDS011;24114;52.260;6.714;2023-07-22T11:34:35;4.45;;;3.90;;
38312;SDS011;24114;52.260;6.714;2023-07-22T11:37:07;5.77;;;3.40;;
38312;SDS011;24114;52.260;6.714;2023-07-22T11:39:34;4.78;;;3.28;;
38312;SDS011;24114;52.260;6.714;2023-07-22T11:42:03;4.28;;;3.63;;
38312;SDS011;24114;52.260;6.714;2023-07-22T11:44:31;5.10;;;3.10;;
38312;SDS011;24114;52.260;6.714;2023-07-22T11:47:00;4.82;;;3.15;;
38312;SDS011;24114;52.260;6.714;2023-07-22T11:49:30;6.15;;;3.20;;
38312;SDS011;24114;52.260;6.714;2023-07-22T11:52:01;4.03;;;3.17;;
38312;SDS011;24114;52.260;6.714;2023-07-22T11:54:30;4.28;;;2.72;;
38312;SDS011;24114;52.260;6.714;2023-07-22T11:57:09;4.50;;;3.10;;
38312;SDS011;24114;52.260;6.714;2023-07-22T11:59:39;4.05;;;3.28;;
38312;SDS011;24114;52.260;6.714;2023-07-22T12:02:11;3.95;;;2.70;;
38312;SDS011;24114;52.260;6.714;2023-07-22T12:04:40;4.20;;;2.77;;
38312;SDS011;24114;52.260;6.714;2023-07-22T12:07:22;3.17;;;2.17;;
38312;SDS011;24114;52.260;6.714;2023-07-22T12:09:51;3.55;;;2.40;;
38312;SDS011;24114;52.260;6.714;2023-07-22T12:12:20;4.60;;;2.80;;
38312;SDS011;24114;52.260;6.714;2023-07-22T12:14:48;3.50;;;2.15;;
38312;SDS011;24114;52.260;6.714;2023-07-22T12:17:16;3.40;;;2.63;;
38312;SDS011;24114;52.260;6.714;2023-07-22T12:19:50;3.50;;;2.50;;
38312;SDS011;24114;52.260;6.714;2023-07-22T12:22:21;2.30;;;1.90;;
38312;SDS011;24114;52.260;6.714;2023-07-22T12:24:49;3.22;;;1.98;;
38312;SDS011;24114;52.260;6.714;2023-07-22T12:27:17;3.17;;;2.38;;
38312;SDS011;24114;52.260;6.714;2023-07-22T12:29:45;3.65;;;2.28;;
38312;SDS011;24114;52.260;6.714;2023-07-22T12:32:13;2.92;;;2.13;;
38312;SDS011;24114;52.260;6.714;2023-07-22T12:34:40;4.38;;;2.83;;
38312;SDS011;24114;52.260;6.714;2023-07-22T12:37:08;4.13;;;2.88;;
38312;SDS011;24114;52.260;6.714;2023-07-22T12:39:37;3.92;;;2.38;;
38312;SDS011;24114;52.260;6.714;2023-07-22T12:42:05;5.37;;;2.60;;
38312;SDS011;24114;52.260;6.714;2023-07-22T12:44:33;3.83;;;3.10;;
38312;SDS011;24114;52.260;6.714;2023-07-22T12:47:01;3.77;;;2.50;;
38312;SDS011;24114;52.260;6.714;2023-07-22T12:49:29;4.40;;;2.53;;
38312;SDS011;24114;52.260;6.714;2023-07-22T12:51:56;4.40;;;2.83;;
38312;SDS011;24114;52.260;6.714;2023-07-22T12:54:30;4.82;;;2.95;;
38312;SDS011;24114;52.260;6.714;2023-07-22T12:56:59;4.32;;;3.08;;
38312;SDS011;24114;52.260;6.714;2023-07-22T12:59:27;3.67;;;2.88;;
38312;SDS011;24114;52.260;6.714;2023-07-22T13:01:55;3.75;;;2.78;;
38312;SDS011;24114;52.260;6.714;2023-07-22T13:04:24;5.95;;;3.00;;
38312;SDS011;24114;52.260;6.714;2023-07-22T13:06:52;6.25;;;3.20;;
38312;SDS011;24114;52.260;6.714;2023-07-22T13:09:20;7.30;;;3.60;;
38312;SDS011;24114;52.260;6.714;2023-07-22T13:11:48;4.18;;;2.80;;
38312;SDS011;24114;52.260;6.714;2023-07-22T13:14:17;7.35;;;3.20;;
38312;SDS011;24114;52.260;6.714;2023-07-22T13:16:45;5.05;;;3.55;;
38312;SDS011;24114;52.260;6.714;2023-07-22T13:19:13;5.40;;;3.60;;
38312;SDS011;24114;52.260;6.714;2023-07-22T13:21:41;4.68;;;2.85;;
38312;SDS011;24114;52.260;6.714;2023-07-22T13:24:08;5.20;;;3.17;;
38312;SDS011;24114;52.260;6.714;2023-07-22T13:26:36;4.60;;;2.97;;
38312;SDS011;24114;52.260;6.714;2023-07-22T13:29:06;5.35;;;2.90;;
38312;SDS011;24114;52.260;6.714;2023-07-22T13:31:36;4.45;;;2.95;;
38312;SDS011;24114;52.260;6.714;2023-07-22T13:34:04;5.57;;;3.50;;
38312;SDS011;24114;52.260;6.714;2023-07-22T13:36:32;5.10;;;3.10;;
38312;SDS011;24114;52.260;6.714;2023-07-22T13:39:00;4.35;;;3.05;;
38312;SDS011;24114;52.260;6.714;2023-07-22T13:41:45;4.65;;;2.90;;
38312;SDS011;24114;52.260;6.714;2023-07-22T13:44:14;4.50;;;2.70;;
38312;SDS011;24114;52.260;6.714;2023-07-22T13:46:42;3.80;;;2.70;;
38312;SDS011;24114;52.260;6.714;2023-07-22T13:49:10;5.25;;;3.00;;
38312;SDS011;24114;52.260;6.714;2023-07-22T13:51:37;6.50;;;3.23;;
38312;SDS011;24114;52.260;6.714;2023-07-22T13:54:05;4.82;;;3.10;;
38312;SDS011;24114;52.260;6.714;2023-07-22T13:56:33;7.32;;;3.25;;
38312;SDS011;24114;52.260;6.714;2023-07-22T13:59:02;6.63;;;3.05;;
38312;SDS011;24114;52.260;6.714;2023-07-22T14:01:30;6.72;;;3.13;;
38312;SDS011;24114;52.260;6.714;2023-07-22T14:03:58;5.05;;;3.40;;
38312;SDS011;24114;52.260;6.714;2023-07-22T14:06:26;4.40;;;3.85;;
38312;SDS011;24114;52.260;6.714;2023-07-22T14:08:54;5.00;;;4.40;;
38312;SDS011;24114;52.260;6.714;2023-07-22T14:11:22;5.82;;;4.82;;
38312;SDS011;24114;52.260;6.714;2023-07-22T14:13:50;6.60;;;4.95;;
38312;SDS011;24114;52.260;6.714;2023-07-22T14:16:20;6.60;;;5.33;;
38312;SDS011;24114;52.260;6.714;2023-07-22T14:18:48;6.43;;;4.80;;
38312;SDS011;24114;52.260;6.714;2023-07-22T14:21:18;6.53;;;4.80;;
38312;SDS011;24114;52.260;6.714;2023-07-22T14:23:46;6.35;;;4.45;;
38312;SDS011;24114;52.260;6.714;2023-07-22T14:26:14;5.72;;;4.55;;
38312;SDS011;24114;52.260;6.714;2023-07-22T14:28:41;5.68;;;4.78;;
38312;SDS011;24114;52.260;6.714;2023-07-22T14:31:09;5.72;;;4.60;;
38312;SDS011;24114;52.260;6.714;2023-07-22T14:33:38;5.57;;;4.50;;
38312;SDS011;24114;52.260;6.714;2023-07-22T14:36:06;4.67;;;4.10;;
38312;SDS011;24114;52.260;6.714;2023-07-22T14:38:34;5.85;;;4.35;;
38312;SDS011;24114;52.260;6.714;2023-07-22T14:41:02;4.53;;;4.10;;
38312;SDS011;24114;52.260;6.714;2023-07-22T14:43:30;4.82;;;4.30;;
38312;SDS011;24114;52.260;6.714;2023-07-22T14:45:58;5.53;;;4.40;;
38312;SDS011;24114;52.260;6.714;2023-07-22T14:48:26;4.13;;;3.70;;
38312;SDS011;24114;52.260;6.714;2023-07-22T14:50:55;5.28;;;4.25;;
38312;SDS011;24114;52.260;6.714;2023-07-22T14:53:23;4.82;;;4.07;;